sensor_id;sensor_type;location;lat;lon;timestamp;P1;durP1;ratioP1;P2;durP2;ratioP2
58015;SDS011;43809;52.110;20.964;2022-07-17T00:01:51;4.33;;;2.53;;
58015;SDS011;43809;52.110;20.964;2022-07-17T00:03:51;4.23;;;2.20;;
58015;SDS011;43809;52.110;20.964;2022-07-17T00:05:51;5.27;;;2.53;;
58015;SDS011;43809;52.110;20.964;2022-07-17T00:07:51;5.25;;;2.40;;
58015;SDS011;43809;52.110;20.964;2022-07-17T00:09:51;4.13;;;2.37;;
58015;SDS011;43809;52.110;20.964;2022-07-17T00:11:52;4.75;;;2.67;;
58015;SDS011;43809;52.110;20.964;2022-07-17T00:13:52;2.80;;;2.43;;
58015;SDS011;43809;52.110;20.964;2022-07-17T00:15:53;3.05;;;2.17;;
58015;SDS011;43809;52.110;20.964;2022-07-17T00:17:53;5.55;;;2.10;;
58015;SDS011;43809;52.110;20.964;2022-07-17T00:19:53;3.42;;;2.35;;
58015;SDS011;43809;52.110;20.964;2022-07-17T00:21:54;3.10;;;1.98;;
58015;SDS011;43809;52.110;20.964;2022-07-17T00:23:54;2.93;;;2.10;;
58015;SDS011;43809;52.110;20.964;2022-07-17T00:25:54;3.97;;;2.50;;
58015;SDS011;43809;52.110;20.964;2022-07-17T00:27:54;4.03;;;2.57;;
58015;SDS011;43809;52.110;20.964;2022-07-17T00:29:55;3.58;;;2.40;;
58015;SDS011;43809;52.110;20.964;2022-07-17T00:31:55;5.70;;;2.33;;
58015;SDS011;43809;52.110;20.964;2022-07-17T00:33:55;4.67;;;1.97;;
58015;SDS011;43809;52.110;20.964;2022-07-17T00:35:55;3.27;;;2.30;;
58015;SDS011;43809;52.110;20.964;2022-07-17T00:37:55;3.80;;;1.90;;
58015;SDS011;43809;52.110;20.964;2022-07-17T00:39:56;3.42;;;2.05;;
58015;SDS011;43809;52.110;20.964;2022-07-17T00:41:56;2.90;;;2.20;;
58015;SDS011;43809;52.110;20.964;2022-07-17T00:44:03;4.73;;;2.03;;
58015;SDS011;43809;52.110;20.964;2022-07-17T00:46:04;4.43;;;2.22;;
58015;SDS011;43809;52.110;20.964;2022-07-17T00:48:05;3.47;;;2.30;;
58015;SDS011;43809;52.110;20.964;2022-07-17T00:50:05;4.57;;;2.22;;
58015;SDS011;43809;52.110;20.964;2022-07-17T00:52:06;4.03;;;2.30;;
58015;SDS011;43809;52.110;20.964;2022-07-17T00:54:07;4.00;;;2.10;;
58015;SDS011;43809;52.110;20.964;2022-07-17T00:56:07;3.50;;;2.30;;
58015;SDS011;43809;52.110;20.964;2022-07-17T00:58:08;3.75;;;2.38;;
58015;SDS011;43809;52.110;20.964;2022-07-17T01:00:09;4.93;;;2.27;;
58015;SDS011;43809;52.110;20.964;2022-07-17T01:02:11;3.85;;;2.00;;
58015;SDS011;43809;52.110;20.964;2022-07-17T01:04:11;5.78;;;2.47;;
58015;SDS011;43809;52.110;20.964;2022-07-17T01:06:13;2.88;;;2.00;;
58015;SDS011;43809;52.110;20.964;2022-07-17T01:08:13;5.18;;;2.75;;
58015;SDS011;43809;52.110;20.964;2022-07-17T01:10:14;4.53;;;2.60;;
58015;SDS011;43809;52.110;20.964;2022-07-17T01:12:14;4.07;;;2.20;;
58015;SDS011;43809;52.110;20.964;2022-07-17T01:14:14;7.03;;;2.53;;
58015;SDS011;43809;52.110;20.964;2022-07-17T01:16:15;5.82;;;2.40;;
58015;SDS011;43809;52.110;20.964;2022-07-17T01:18:15;4.97;;;2.70;;
58015;SDS011;43809;52.110;20.964;2022-07-17T01:20:16;4.43;;;2.23;;
58015;SDS011;43809;52.110;20.964;2022-07-17T01:22:17;3.28;;;2.38;;
58015;SDS011;43809;52.110;20.964;2022-07-17T01:24:17;5.40;;;2.30;;
58015;SDS011;43809;52.110;20.964;2022-07-17T01:26:17;4.63;;;2.78;;
58015;SDS011;43809;52.110;20.964;2022-07-17T01:28:18;4.23;;;2.17;;
58015;SDS011;43809;52.110;20.964;2022-07-17T01:30:18;7.03;;;2.50;;
58015;SDS011;43809;52.110;20.964;2022-07-17T01:32:18;3.30;;;2.55;;
58015;SDS011;43809;52.110;20.964;2022-07-17T01:34:18;4.23;;;2.37;;
58015;SDS011;43809;52.110;20.964;2022-07-17T01:36:22;5.80;;;2.20;;
58015;SDS011;43809;52.110;20.964;2022-07-17T01:38:22;5.55;;;2.58;;
58015;SDS011;43809;52.110;20.964;2022-07-17T01:40:23;4.43;;;2.33;;
58015;SDS011;43809;52.110;20.964;2022-07-17T01:42:23;4.80;;;2.83;;
58015;SDS011;43809;52.110;20.964;2022-07-17T01:44:24;4.38;;;2.28;;
58015;SDS011;43809;52.110;20.964;2022-07-17T01:46:24;5.20;;;2.73;;
58015;SDS011;43809;52.110;20.964;2022-07-17T01:48:26;5.75;;;2.70;;
58015;SDS011;43809;52.110;20.964;2022-07-17T01:50:26;5.72;;;2.72;;
58015;SDS011;43809;52.110;20.964;2022-07-17T01:52:26;5.27;;;2.77;;
58015;SDS011;43809;52.110;20.964;2022-07-17T01:54:27;3.00;;;2.20;;
58015;SDS011;43809;52.110;20.964;2022-07-17T01:56:27;5.05;;;2.67;;
58015;SDS011;43809;52.110;20.964;2022-07-17T01:58:27;5.20;;;2.30;;
58015;SDS011;43809;52.110;20.964;2022-07-17T02:00:27;3.30;;;2.40;;
58015;SDS011;43809;52.110;20.964;2022-07-17T02:02:28;5.03;;;2.90;;
58015;SDS011;43809;52.110;20.964;2022-07-17T02:04:28;6.53;;;2.95;;
58015;SDS011;43809;52.110;20.964;2022-07-17T02:06:29;6.97;;;3.33;;
58015;SDS011;43809;52.110;20.964;2022-07-17T02:08:29;7.32;;;3.05;;
58015;SDS011;43809;52.110;20.964;2022-07-17T02:10:29;5.03;;;3.20;;
58015;SDS011;43809;52.110;20.964;2022-07-17T02:12:29;4.60;;;3.60;;
58015;SDS011;43809;52.110;20.964;2022-07-17T02:14:29;5.27;;;3.20;;
58015;SDS011;43809;52.110;20.964;2022-07-17T02:16:30;4.03;;;3.42;;
58015;SDS011;43809;52.110;20.964;2022-07-17T02:18:30;5.63;;;3.53;;
58015;SDS011;43809;52.110;20.964;2022-07-17T02:20:30;7.45;;;4.28;;
58015;SDS011;43809;52.110;20.964;2022-07-17T02:22:30;7.87;;;4.57;;
58015;SDS011;43809;52.110;20.964;2022-07-17T02:24:31;6.77;;;4.27;;
58015;SDS011;43809;52.110;20.964;2022-07-17T02:26:31;6.03;;;3.70;;
58015;SDS011;43809;52.110;20.964;2022-07-17T02:28:31;5.80;;;3.55;;
58015;SDS011;43809;52.110;20.964;2022-07-17T02:30:31;6.30;;;3.50;;
58015;SDS011;43809;52.110;20.964;2022-07-17T02:32:31;5.87;;;3.83;;
58015;SDS011;43809;52.110;20.964;2022-07-17T02:34:32;7.43;;;4.23;;
58015;SDS011;43809;52.110;20.964;2022-07-17T02:36:32;11.63;;;4.27;;
58015;SDS011;43809;52.110;20.964;2022-07-17T02:38:32;6.03;;;5.03;;
58015;SDS011;43809;52.110;20.964;2022-07-17T02:40:32;9.50;;;4.63;;
58015;SDS011;43809;52.110;20.964;2022-07-17T02:42:40;6.43;;;4.50;;
58015;SDS011;43809;52.110;20.964;2022-07-17T02:44:40;7.68;;;5.13;;
58015;SDS011;43809;52.110;20.964;2022-07-17T02:46:40;7.53;;;5.07;;
58015;SDS011;43809;52.110;20.964;2022-07-17T02:48:41;6.67;;;4.53;;
58015;SDS011;43809;52.110;20.964;2022-07-17T02:50:41;8.38;;;4.97;;
58015;SDS011;43809;52.110;20.964;2022-07-17T02:52:41;7.53;;;4.97;;
58015;SDS011;43809;52.110;20.964;2022-07-17T02:54:43;7.65;;;5.20;;
58015;SDS011;43809;52.110;20.964;2022-07-17T02:56:44;7.97;;;4.82;;
58015;SDS011;43809;52.110;20.964;2022-07-17T02:58:44;6.80;;;5.00;;
58015;SDS011;43809;52.110;20.964;2022-07-17T03:00:44;6.17;;;4.57;;
58015;SDS011;43809;52.110;20.964;2022-07-17T03:02:44;6.60;;;4.70;;
58015;SDS011;43809;52.110;20.964;2022-07-17T03:04:45;8.43;;;4.43;;
58015;SDS011;43809;52.110;20.964;2022-07-17T03:06:45;7.33;;;4.10;;
58015;SDS011;43809;52.110;20.964;2022-07-17T03:08:45;5.45;;;3.75;;
58015;SDS011;43809;52.110;20.964;2022-07-17T03:10:45;9.80;;;5.23;;
58015;SDS011;43809;52.110;20.964;2022-07-17T03:12:45;6.93;;;4.37;;
58015;SDS011;43809;52.110;20.964;2022-07-17T03:14:46;5.25;;;4.00;;
58015;SDS011;43809;52.110;20.964;2022-07-17T03:16:46;5.35;;;4.03;;
58015;SDS011;43809;52.110;20.964;2022-07-17T03:18:46;7.80;;;4.67;;
58015;SDS011;43809;52.110;20.964;2022-07-17T03:20:47;8.13;;;4.47;;
58015;SDS011;43809;52.110;20.964;2022-07-17T03:22:47;6.93;;;4.77;;
58015;SDS011;43809;52.110;20.964;2022-07-17T03:24:47;6.87;;;5.07;;
58015;SDS011;43809;52.110;20.964;2022-07-17T03:26:47;5.80;;;3.90;;
58015;SDS011;43809;52.110;20.964;2022-07-17T03:28:47;5.93;;;4.87;;
58015;SDS011;43809;52.110;20.964;2022-07-17T03:30:47;8.13;;;5.30;;
58015;SDS011;43809;52.110;20.964;2022-07-17T03:32:47;7.53;;;5.07;;
58015;SDS011;43809;52.110;20.964;2022-07-17T03:34:48;6.13;;;4.50;;
58015;SDS011;43809;52.110;20.964;2022-07-17T03:36:48;7.07;;;4.60;;
58015;SDS011;43809;52.110;20.964;2022-07-17T03:38:48;6.83;;;4.90;;
58015;SDS011;43809;52.110;20.964;2022-07-17T03:40:52;5.80;;;4.53;;
58015;SDS011;43809;52.110;20.964;2022-07-17T03:44:52;7.97;;;4.50;;
58015;SDS011;43809;52.110;20.964;2022-07-17T03:46:52;6.50;;;4.25;;
58015;SDS011;43809;52.110;20.964;2022-07-17T03:48:52;10.15;;;4.72;;
58015;SDS011;43809;52.110;20.964;2022-07-17T03:50:52;4.77;;;4.27;;
58015;SDS011;43809;52.110;20.964;2022-07-17T03:52:53;5.03;;;4.50;;
58015;SDS011;43809;52.110;20.964;2022-07-17T03:54:53;7.20;;;3.97;;
58015;SDS011;43809;52.110;20.964;2022-07-17T03:56:53;8.47;;;4.50;;
58015;SDS011;43809;52.110;20.964;2022-07-17T03:58:53;5.22;;;3.92;;
58015;SDS011;43809;52.110;20.964;2022-07-17T04:00:53;4.88;;;3.60;;
58015;SDS011;43809;52.110;20.964;2022-07-17T04:02:54;8.55;;;4.90;;
58015;SDS011;43809;52.110;20.964;2022-07-17T04:04:54;6.53;;;4.38;;
58015;SDS011;43809;52.110;20.964;2022-07-17T04:06:55;5.18;;;4.63;;
58015;SDS011;43809;52.110;20.964;2022-07-17T04:08:55;4.47;;;4.07;;
58015;SDS011;43809;52.110;20.964;2022-07-17T04:10:55;8.87;;;4.87;;
58015;SDS011;43809;52.110;20.964;2022-07-17T04:12:55;6.27;;;4.20;;
58015;SDS011;43809;52.110;20.964;2022-07-17T04:14:55;6.00;;;3.80;;
58015;SDS011;43809;52.110;20.964;2022-07-17T04:16:55;4.25;;;3.65;;
58015;SDS011;43809;52.110;20.964;2022-07-17T04:18:56;5.47;;;3.60;;
58015;SDS011;43809;52.110;20.964;2022-07-17T04:20:57;5.27;;;3.60;;
58015;SDS011;43809;52.110;20.964;2022-07-17T04:22:57;7.00;;;3.43;;
58015;SDS011;43809;52.110;20.964;2022-07-17T04:24:59;5.10;;;3.17;;
58015;SDS011;43809;52.110;20.964;2022-07-17T04:26:59;6.00;;;3.60;;
58015;SDS011;43809;52.110;20.964;2022-07-17T04:28:59;6.67;;;3.37;;
58015;SDS011;43809;52.110;20.964;2022-07-17T04:31:00;4.67;;;3.20;;
58015;SDS011;43809;52.110;20.964;2022-07-17T04:33:00;5.57;;;3.17;;
58015;SDS011;43809;52.110;20.964;2022-07-17T04:35:00;4.03;;;2.93;;
58015;SDS011;43809;52.110;20.964;2022-07-17T04:37:01;5.30;;;3.30;;
58015;SDS011;43809;52.110;20.964;2022-07-17T04:39:02;4.97;;;3.28;;
58015;SDS011;43809;52.110;20.964;2022-07-17T04:41:02;4.47;;;3.22;;
58015;SDS011;43809;52.110;20.964;2022-07-17T04:43:03;6.57;;;4.07;;
58015;SDS011;43809;52.110;20.964;2022-07-17T04:45:04;5.53;;;3.97;;
58015;SDS011;43809;52.110;20.964;2022-07-17T04:47:04;5.35;;;4.47;;
58015;SDS011;43809;52.110;20.964;2022-07-17T04:49:04;5.87;;;4.07;;
58015;SDS011;43809;52.110;20.964;2022-07-17T04:51:05;6.07;;;3.83;;
58015;SDS011;43809;52.110;20.964;2022-07-17T04:53:05;6.93;;;4.30;;
58015;SDS011;43809;52.110;20.964;2022-07-17T04:55:05;6.95;;;3.70;;
58015;SDS011;43809;52.110;20.964;2022-07-17T04:57:05;5.10;;;4.20;;
58015;SDS011;43809;52.110;20.964;2022-07-17T04:59:06;5.07;;;3.97;;
58015;SDS011;43809;52.110;20.964;2022-07-17T05:01:06;7.13;;;4.47;;
58015;SDS011;43809;52.110;20.964;2022-07-17T05:03:06;8.27;;;4.43;;
58015;SDS011;43809;52.110;20.964;2022-07-17T05:05:07;5.40;;;4.30;;
58015;SDS011;43809;52.110;20.964;2022-07-17T05:07:07;5.95;;;4.60;;
58015;SDS011;43809;52.110;20.964;2022-07-17T05:09:07;5.33;;;4.33;;
58015;SDS011;43809;52.110;20.964;2022-07-17T05:11:07;5.80;;;3.90;;
58015;SDS011;43809;52.110;20.964;2022-07-17T05:13:08;5.53;;;4.10;;
58015;SDS011;43809;52.110;20.964;2022-07-17T05:15:08;5.93;;;3.97;;
58015;SDS011;43809;52.110;20.964;2022-07-17T05:17:08;4.57;;;3.60;;
58015;SDS011;43809;52.110;20.964;2022-07-17T05:19:08;4.77;;;3.30;;
58015;SDS011;43809;52.110;20.964;2022-07-17T05:21:08;4.33;;;3.70;;
58015;SDS011;43809;52.110;20.964;2022-07-17T05:23:09;5.70;;;4.10;;
58015;SDS011;43809;52.110;20.964;2022-07-17T05:25:09;5.72;;;3.83;;
58015;SDS011;43809;52.110;20.964;2022-07-17T05:27:09;5.10;;;4.27;;
58015;SDS011;43809;52.110;20.964;2022-07-17T05:29:09;5.10;;;4.20;;
58015;SDS011;43809;52.110;20.964;2022-07-17T05:31:09;5.37;;;3.80;;
58015;SDS011;43809;52.110;20.964;2022-07-17T05:33:11;4.73;;;3.93;;
58015;SDS011;43809;52.110;20.964;2022-07-17T05:35:11;6.32;;;4.47;;
58015;SDS011;43809;52.110;20.964;2022-07-17T05:37:11;7.45;;;4.63;;
58015;SDS011;43809;52.110;20.964;2022-07-17T05:39:11;6.00;;;4.68;;
58015;SDS011;43809;52.110;20.964;2022-07-17T05:41:12;6.00;;;4.30;;
58015;SDS011;43809;52.110;20.964;2022-07-17T05:43:12;5.90;;;4.17;;
58015;SDS011;43809;52.110;20.964;2022-07-17T05:45:12;5.03;;;4.30;;
58015;SDS011;43809;52.110;20.964;2022-07-17T05:47:12;5.43;;;4.33;;
58015;SDS011;43809;52.110;20.964;2022-07-17T05:49:12;5.43;;;4.30;;
58015;SDS011;43809;52.110;20.964;2022-07-17T05:51:12;5.88;;;4.28;;
58015;SDS011;43809;52.110;20.964;2022-07-17T05:53:13;4.73;;;4.23;;
58015;SDS011;43809;52.110;20.964;2022-07-17T05:55:16;4.60;;;4.20;;
58015;SDS011;43809;52.110;20.964;2022-07-17T05:57:24;5.05;;;4.32;;
58015;SDS011;43809;52.110;20.964;2022-07-17T05:59:24;7.90;;;3.90;;
58015;SDS011;43809;52.110;20.964;2022-07-17T06:01:34;5.65;;;4.10;;
58015;SDS011;43809;52.110;20.964;2022-07-17T06:03:34;7.20;;;4.60;;
58015;SDS011;43809;52.110;20.964;2022-07-17T06:05:35;5.50;;;4.90;;
58015;SDS011;43809;52.110;20.964;2022-07-17T06:07:36;5.93;;;4.50;;
58015;SDS011;43809;52.110;20.964;2022-07-17T06:09:36;5.88;;;4.13;;
58015;SDS011;43809;52.110;20.964;2022-07-17T06:11:37;5.15;;;4.28;;
58015;SDS011;43809;52.110;20.964;2022-07-17T06:13:40;5.72;;;4.55;;
58015;SDS011;43809;52.110;20.964;2022-07-17T06:15:40;5.50;;;3.80;;
58015;SDS011;43809;52.110;20.964;2022-07-17T06:17:41;5.97;;;4.57;;
58015;SDS011;43809;52.110;20.964;2022-07-17T06:19:44;7.22;;;4.90;;
58015;SDS011;43809;52.110;20.964;2022-07-17T06:21:44;5.63;;;4.57;;
58015;SDS011;43809;52.110;20.964;2022-07-17T06:23:44;6.57;;;4.77;;
58015;SDS011;43809;52.110;20.964;2022-07-17T06:25:44;5.97;;;5.13;;
58015;SDS011;43809;52.110;20.964;2022-07-17T06:27:46;5.70;;;5.10;;
58015;SDS011;43809;52.110;20.964;2022-07-17T06:29:56;5.50;;;4.95;;
58015;SDS011;43809;52.110;20.964;2022-07-17T06:31:56;4.43;;;4.03;;
58015;SDS011;43809;52.110;20.964;2022-07-17T06:33:56;6.37;;;4.87;;
58015;SDS011;43809;52.110;20.964;2022-07-17T06:35:56;5.53;;;4.63;;
58015;SDS011;43809;52.110;20.964;2022-07-17T06:37:57;8.43;;;5.00;;
58015;SDS011;43809;52.110;20.964;2022-07-17T06:39:57;5.55;;;4.22;;
58015;SDS011;43809;52.110;20.964;2022-07-17T06:42:18;7.17;;;4.70;;
58015;SDS011;43809;52.110;20.964;2022-07-17T06:44:21;5.65;;;4.68;;
58015;SDS011;43809;52.110;20.964;2022-07-17T06:46:21;5.67;;;4.40;;
58015;SDS011;43809;52.110;20.964;2022-07-17T06:50:54;4.55;;;4.15;;
58015;SDS011;43809;52.110;20.964;2022-07-17T06:52:54;5.97;;;4.10;;
58015;SDS011;43809;52.110;20.964;2022-07-17T06:54:54;4.97;;;3.90;;
58015;SDS011;43809;52.110;20.964;2022-07-17T06:57:02;4.37;;;3.27;;
58015;SDS011;43809;52.110;20.964;2022-07-17T06:59:19;4.32;;;3.90;;
58015;SDS011;43809;52.110;20.964;2022-07-17T07:01:19;3.67;;;3.38;;
58015;SDS011;43809;52.110;20.964;2022-07-17T07:03:20;4.03;;;3.60;;
58015;SDS011;43809;52.110;20.964;2022-07-17T07:05:21;6.03;;;4.07;;
58015;SDS011;43809;52.110;20.964;2022-07-17T07:07:30;5.23;;;4.03;;
58015;SDS011;43809;52.110;20.964;2022-07-17T07:09:53;4.55;;;4.03;;
58015;SDS011;43809;52.110;20.964;2022-07-17T07:12:09;3.95;;;3.60;;
58015;SDS011;43809;52.110;20.964;2022-07-17T07:14:14;5.93;;;4.30;;
58015;SDS011;43809;52.110;20.964;2022-07-17T07:16:17;5.82;;;4.75;;
58015;SDS011;43809;52.110;20.964;2022-07-17T07:18:17;5.10;;;4.60;;
58015;SDS011;43809;52.110;20.964;2022-07-17T07:20:20;6.65;;;5.60;;
58015;SDS011;43809;52.110;20.964;2022-07-17T07:22:20;6.35;;;5.55;;
58015;SDS011;43809;52.110;20.964;2022-07-17T07:24:20;6.90;;;5.13;;
58015;SDS011;43809;52.110;20.964;2022-07-17T07:26:21;5.30;;;4.83;;
58015;SDS011;43809;52.110;20.964;2022-07-17T07:28:21;5.20;;;4.80;;
58015;SDS011;43809;52.110;20.964;2022-07-17T07:30:22;6.63;;;5.72;;
58015;SDS011;43809;52.110;20.964;2022-07-17T07:32:22;5.80;;;5.20;;
58015;SDS011;43809;52.110;20.964;2022-07-17T07:34:22;5.47;;;5.03;;
58015;SDS011;43809;52.110;20.964;2022-07-17T07:38:33;8.23;;;5.88;;
58015;SDS011;43809;52.110;20.964;2022-07-17T07:40:34;5.53;;;4.95;;
58015;SDS011;43809;52.110;20.964;2022-07-17T07:42:34;5.90;;;5.40;;
58015;SDS011;43809;52.110;20.964;2022-07-17T07:44:34;7.17;;;5.40;;
58015;SDS011;43809;52.110;20.964;2022-07-17T07:46:35;5.97;;;5.47;;
58015;SDS011;43809;52.110;20.964;2022-07-17T07:48:36;6.03;;;5.43;;
58015;SDS011;43809;52.110;20.964;2022-07-17T07:50:36;5.33;;;4.80;;
58015;SDS011;43809;52.110;20.964;2022-07-17T07:52:37;8.18;;;5.40;;
58015;SDS011;43809;52.110;20.964;2022-07-17T07:54:38;6.25;;;5.53;;
58015;SDS011;43809;52.110;20.964;2022-07-17T07:56:38;6.23;;;5.63;;
58015;SDS011;43809;52.110;20.964;2022-07-17T07:58:38;6.03;;;5.43;;
58015;SDS011;43809;52.110;20.964;2022-07-17T08:00:39;7.07;;;5.77;;
58015;SDS011;43809;52.110;20.964;2022-07-17T08:02:40;6.13;;;5.63;;
58015;SDS011;43809;52.110;20.964;2022-07-17T08:04:41;5.73;;;5.27;;
58015;SDS011;43809;52.110;20.964;2022-07-17T08:06:41;6.07;;;5.50;;
58015;SDS011;43809;52.110;20.964;2022-07-17T08:08:41;6.35;;;5.43;;
58015;SDS011;43809;52.110;20.964;2022-07-17T08:10:41;6.00;;;5.30;;
58015;SDS011;43809;52.110;20.964;2022-07-17T08:12:42;6.07;;;4.63;;
58015;SDS011;43809;52.110;20.964;2022-07-17T08:14:42;5.23;;;4.57;;
58015;SDS011;43809;52.110;20.964;2022-07-17T08:16:42;4.50;;;4.10;;
58015;SDS011;43809;52.110;20.964;2022-07-17T08:18:42;5.50;;;4.77;;
58015;SDS011;43809;52.110;20.964;2022-07-17T08:20:42;4.57;;;4.17;;
58015;SDS011;43809;52.110;20.964;2022-07-17T08:22:43;5.95;;;4.35;;
58015;SDS011;43809;52.110;20.964;2022-07-17T08:24:43;4.03;;;3.70;;
58015;SDS011;43809;52.110;20.964;2022-07-17T08:26:44;4.90;;;3.50;;
58015;SDS011;43809;52.110;20.964;2022-07-17T08:28:44;3.53;;;3.13;;
58015;SDS011;43809;52.110;20.964;2022-07-17T08:30:44;3.55;;;2.60;;
58015;SDS011;43809;52.110;20.964;2022-07-17T08:32:45;3.13;;;2.40;;
58015;SDS011;43809;52.110;20.964;2022-07-17T08:34:45;7.43;;;2.40;;
58015;SDS011;43809;52.110;20.964;2022-07-17T08:36:45;2.72;;;2.10;;
58015;SDS011;43809;52.110;20.964;2022-07-17T08:38:45;2.55;;;1.70;;
58015;SDS011;43809;52.110;20.964;2022-07-17T08:40:46;2.20;;;2.00;;
58015;SDS011;43809;52.110;20.964;2022-07-17T08:42:50;2.22;;;1.58;;
58015;SDS011;43809;52.110;20.964;2022-07-17T08:44:53;3.47;;;1.60;;
58015;SDS011;43809;52.110;20.964;2022-07-17T08:46:53;2.10;;;1.42;;
58015;SDS011;43809;52.110;20.964;2022-07-17T08:48:56;1.33;;;1.10;;
58015;SDS011;43809;52.110;20.964;2022-07-17T08:50:59;3.95;;;1.42;;
58015;SDS011;43809;52.110;20.964;2022-07-17T08:52:59;1.30;;;1.20;;
58015;SDS011;43809;52.110;20.964;2022-07-17T08:54:59;2.22;;;1.08;;
58015;SDS011;43809;52.110;20.964;2022-07-17T08:57:00;2.25;;;1.20;;
58015;SDS011;43809;52.110;20.964;2022-07-17T08:59:01;1.88;;;1.00;;
58015;SDS011;43809;52.110;20.964;2022-07-17T09:01:01;2.03;;;1.00;;
58015;SDS011;43809;52.110;20.964;2022-07-17T09:03:03;4.63;;;1.20;;
58015;SDS011;43809;52.110;20.964;2022-07-17T09:05:03;2.97;;;1.35;;
58015;SDS011;43809;52.110;20.964;2022-07-17T09:07:05;2.10;;;1.00;;
58015;SDS011;43809;52.110;20.964;2022-07-17T09:09:09;1.67;;;1.00;;
58015;SDS011;43809;52.110;20.964;2022-07-17T09:11:12;3.95;;;1.10;;
58015;SDS011;43809;52.110;20.964;2022-07-17T09:15:20;1.48;;;0.90;;
58015;SDS011;43809;52.110;20.964;2022-07-17T09:17:20;1.10;;;0.88;;
58015;SDS011;43809;52.110;20.964;2022-07-17T09:19:28;2.70;;;1.00;;
58015;SDS011;43809;52.110;20.964;2022-07-17T09:21:29;3.17;;;1.10;;
58015;SDS011;43809;52.110;20.964;2022-07-17T09:23:29;2.42;;;1.17;;
58015;SDS011;43809;52.110;20.964;2022-07-17T09:25:39;4.77;;;1.30;;
58015;SDS011;43809;52.110;20.964;2022-07-17T09:27:40;2.17;;;0.70;;
58015;SDS011;43809;52.110;20.964;2022-07-17T09:29:59;1.80;;;0.97;;
58015;SDS011;43809;52.110;20.964;2022-07-17T09:32:00;1.88;;;0.82;;
58015;SDS011;43809;52.110;20.964;2022-07-17T09:34:00;3.03;;;1.13;;
58015;SDS011;43809;52.110;20.964;2022-07-17T09:36:08;1.83;;;0.93;;
58015;SDS011;43809;52.110;20.964;2022-07-17T09:38:08;2.28;;;1.00;;
58015;SDS011;43809;52.110;20.964;2022-07-17T09:40:09;2.03;;;0.80;;
58015;SDS011;43809;52.110;20.964;2022-07-17T09:42:21;1.48;;;1.00;;
58015;SDS011;43809;52.110;20.964;2022-07-17T09:44:21;1.23;;;1.00;;
58015;SDS011;43809;52.110;20.964;2022-07-17T09:46:22;1.73;;;0.90;;
58015;SDS011;43809;52.110;20.964;2022-07-17T09:48:26;2.25;;;1.30;;
58015;SDS011;43809;52.110;20.964;2022-07-17T09:50:27;2.33;;;0.90;;
58015;SDS011;43809;52.110;20.964;2022-07-17T09:52:28;1.30;;;1.00;;
58015;SDS011;43809;52.110;20.964;2022-07-17T09:54:32;1.45;;;1.08;;
58015;SDS011;43809;52.110;20.964;2022-07-17T09:56:33;2.08;;;1.15;;
58015;SDS011;43809;52.110;20.964;2022-07-17T09:58:34;4.00;;;1.25;;
58015;SDS011;43809;52.110;20.964;2022-07-17T10:00:35;1.67;;;0.90;;
58015;SDS011;43809;52.110;20.964;2022-07-17T10:02:35;1.93;;;1.20;;
58015;SDS011;43809;52.110;20.964;2022-07-17T10:04:35;2.53;;;1.17;;
58015;SDS011;43809;52.110;20.964;2022-07-17T10:06:36;1.77;;;1.20;;
58015;SDS011;43809;52.110;20.964;2022-07-17T10:08:36;1.45;;;1.10;;
58015;SDS011;43809;52.110;20.964;2022-07-17T10:10:37;3.00;;;1.20;;
58015;SDS011;43809;52.110;20.964;2022-07-17T10:12:38;3.42;;;1.25;;
58015;SDS011;43809;52.110;20.964;2022-07-17T10:14:38;2.90;;;1.33;;
58015;SDS011;43809;52.110;20.964;2022-07-17T10:16:41;2.58;;;1.40;;
58015;SDS011;43809;52.110;20.964;2022-07-17T10:18:42;1.73;;;1.13;;
58015;SDS011;43809;52.110;20.964;2022-07-17T10:20:43;1.53;;;1.10;;
58015;SDS011;43809;52.110;20.964;2022-07-17T10:22:43;1.27;;;1.17;;
58015;SDS011;43809;52.110;20.964;2022-07-17T10:24:45;1.83;;;1.25;;
58015;SDS011;43809;52.110;20.964;2022-07-17T10:26:45;1.20;;;1.10;;
58015;SDS011;43809;52.110;20.964;2022-07-17T10:28:48;2.00;;;1.10;;
58015;SDS011;43809;52.110;20.964;2022-07-17T10:30:48;1.70;;;1.00;;
58015;SDS011;43809;52.110;20.964;2022-07-17T10:32:56;2.13;;;1.10;;
58015;SDS011;43809;52.110;20.964;2022-07-17T10:35:02;1.27;;;1.00;;
58015;SDS011;43809;52.110;20.964;2022-07-17T10:37:13;1.48;;;1.10;;
58015;SDS011;43809;52.110;20.964;2022-07-17T10:39:14;1.92;;;1.27;;
58015;SDS011;43809;52.110;20.964;2022-07-17T10:41:19;1.17;;;1.10;;
58015;SDS011;43809;52.110;20.964;2022-07-17T10:43:20;1.55;;;1.20;;
58015;SDS011;43809;52.110;20.964;2022-07-17T10:45:21;3.00;;;1.37;;
58015;SDS011;43809;52.110;20.964;2022-07-17T10:47:21;1.27;;;1.13;;
58015;SDS011;43809;52.110;20.964;2022-07-17T10:49:22;2.33;;;1.35;;
58015;SDS011;43809;52.110;20.964;2022-07-17T10:51:23;1.95;;;1.30;;
58015;SDS011;43809;52.110;20.964;2022-07-17T10:53:30;1.27;;;1.08;;
58015;SDS011;43809;52.110;20.964;2022-07-17T10:55:31;1.83;;;1.30;;
58015;SDS011;43809;52.110;20.964;2022-07-17T10:57:32;2.20;;;1.13;;
58015;SDS011;43809;52.110;20.964;2022-07-17T10:59:32;1.30;;;1.20;;
58015;SDS011;43809;52.110;20.964;2022-07-17T11:01:32;2.50;;;1.27;;
58015;SDS011;43809;52.110;20.964;2022-07-17T11:03:37;1.80;;;1.10;;
58015;SDS011;43809;52.110;20.964;2022-07-17T11:05:39;1.38;;;1.05;;
58015;SDS011;43809;52.110;20.964;2022-07-17T11:07:52;2.08;;;1.15;;
58015;SDS011;43809;52.110;20.964;2022-07-17T11:09:53;2.00;;;1.20;;
58015;SDS011;43809;52.110;20.964;2022-07-17T11:11:53;1.83;;;1.10;;
58015;SDS011;43809;52.110;20.964;2022-07-17T11:13:53;1.73;;;0.93;;
58015;SDS011;43809;52.110;20.964;2022-07-17T11:15:54;1.37;;;0.83;;
58015;SDS011;43809;52.110;20.964;2022-07-17T11:17:54;1.50;;;1.07;;
58015;SDS011;43809;52.110;20.964;2022-07-17T11:19:54;1.57;;;1.20;;
58015;SDS011;43809;52.110;20.964;2022-07-17T11:21:54;1.00;;;0.90;;
58015;SDS011;43809;52.110;20.964;2022-07-17T11:23:55;1.15;;;1.05;;
58015;SDS011;43809;52.110;20.964;2022-07-17T11:26:02;2.07;;;1.20;;
58015;SDS011;43809;52.110;20.964;2022-07-17T11:28:03;1.70;;;0.90;;
58015;SDS011;43809;52.110;20.964;2022-07-17T11:30:03;2.85;;;0.95;;
58015;SDS011;43809;52.110;20.964;2022-07-17T11:32:04;1.05;;;0.80;;
58015;SDS011;43809;52.110;20.964;2022-07-17T11:34:05;1.10;;;0.90;;
58015;SDS011;43809;52.110;20.964;2022-07-17T11:36:08;1.58;;;1.02;;
58015;SDS011;43809;52.110;20.964;2022-07-17T11:38:09;1.40;;;0.80;;
58015;SDS011;43809;52.110;20.964;2022-07-17T11:40:09;1.73;;;0.77;;
58015;SDS011;43809;52.110;20.964;2022-07-17T11:42:10;1.38;;;0.90;;
58015;SDS011;43809;52.110;20.964;2022-07-17T11:44:12;1.75;;;0.82;;
58015;SDS011;43809;52.110;20.964;2022-07-17T11:48:13;1.10;;;1.00;;
58015;SDS011;43809;52.110;20.964;2022-07-17T11:50:13;0.95;;;0.70;;
58015;SDS011;43809;52.110;20.964;2022-07-17T11:52:15;1.15;;;0.80;;
58015;SDS011;43809;52.110;20.964;2022-07-17T11:54:16;0.95;;;0.90;;
58015;SDS011;43809;52.110;20.964;2022-07-17T11:56:20;3.53;;;1.00;;
58015;SDS011;43809;52.110;20.964;2022-07-17T11:58:20;2.90;;;0.90;;
58015;SDS011;43809;52.110;20.964;2022-07-17T12:00:21;1.23;;;0.80;;
58015;SDS011;43809;52.110;20.964;2022-07-17T12:02:22;2.20;;;1.00;;
58015;SDS011;43809;52.110;20.964;2022-07-17T12:04:28;1.10;;;0.88;;
58015;SDS011;43809;52.110;20.964;2022-07-17T12:06:28;1.47;;;0.97;;
58015;SDS011;43809;52.110;20.964;2022-07-17T12:08:28;1.00;;;0.90;;
58015;SDS011;43809;52.110;20.964;2022-07-17T12:10:29;1.40;;;0.82;;